Time;durP1;ratioP1;P1;durP2;ratioP2;P2;SDS_P1;SDS_P2;PMS_P1;PMS_P2;Temp;Humidity;BMP_temperature;BMP_pressure;BME280_temperature;BME280_humidity;BME280_pressure;Samples;Min_cycle;Max_cycle;Signal;HPM_P1;HPM_P2
2022/01/15 00:01:45;;;;;;;12.75;1.23;;;11.40;92.30;;;;;;5034362;28;20480;-71
2022/01/15 00:04:11;;;;;;;16.85;1.27;;;11.40;92.20;;;;;;5034063;28;20069;-72
2022/01/15 00:06:37;;;;;;;3.83;0.82;;;11.30;92.20;;;;;;5033203;28;20111;-71
2022/01/15 00:09:04;;;;;;;2.60;0.98;;;11.40;92.30;;;;;;5033046;28;20049;-71
2022/01/15 00:11:30;;;;;;;2.72;0.98;;;11.40;92.30;;;;;;5033759;28;20038;-71
2022/01/15 00:14:09;;;;;;;1.83;1.20;;;11.40;92.30;;;;;;5034251;28;20073;-71
2022/01/15 00:16:46;;;;;;;1.20;1.02;;;11.30;92.30;;;;;;5034464;28;20029;-71
2022/01/15 00:19:15;;;;;;;0.98;0.90;;;11.30;92.20;;;;;;5033194;28;20030;-71
2022/01/15 00:21:42;;;;;;;1.40;1.00;;;11.30;92.20;;;;;;5034459;28;20500;-71
2022/01/15 00:24:10;;;;;;;1.80;1.10;;;11.30;92.20;;;;;;5033847;28;20076;-71
2022/01/15 00:26:40;;;;;;;2.92;0.80;;;11.30;92.20;;;;;;5021550;28;20424;-71
2022/01/15 00:29:05;;;;;;;1.20;0.95;;;11.30;92.20;;;;;;5033529;28;20083;-71
2022/01/15 00:31:32;;;;;;;1.05;0.95;;;11.30;92.10;;;;;;5033969;28;20029;-71
2022/01/15 00:33:57;;;;;;;12.73;1.10;;;11.30;92.20;;;;;;5033221;28;20029;-71
2022/01/15 00:36:23;;;;;;;20.42;1.15;;;11.30;92.10;;;;;;5033514;28;20110;-71
2022/01/15 00:38:49;;;;;;;1.42;0.80;;;11.20;92.10;;;;;;5034176;28;20033;-71
2022/01/15 00:41:17;;;;;;;34.70;1.40;;;11.20;92.10;;;;;;5032976;28;20123;-71
2022/01/15 00:43:43;;;;;;;4.82;1.20;;;11.20;92.20;;;;;;5033730;28;20366;-71
2022/01/15 00:46:08;;;;;;;9.50;0.90;;;11.20;92.10;;;;;;5033632;28;20032;-71
2022/01/15 00:48:34;;;;;;;21.38;1.80;;;11.20;92.10;;;;;;5033139;28;20041;-71
2022/01/15 00:51:03;;;;;;;5.15;1.10;;;11.20;92.40;;;;;;5033096;28;20030;-71
2022/01/15 00:53:28;;;;;;;15.95;1.60;;;11.20;92.10;;;;;;5033206;28;20456;-73
2022/01/15 00:55:54;;;;;;;17.10;1.20;;;11.20;92.00;;;;;;5033365;28;20041;-71
2022/01/15 00:58:20;;;;;;;4.72;1.00;;;11.20;92.00;;;;;;5033365;28;20033;-71
2022/01/15 01:00:45;;;;;;;11.95;1.23;;;11.20;92.00;;;;;;5032786;28;20052;-71
2022/01/15 01:03:11;;;;;;;1.27;0.95;;;11.20;92.00;;;;;;5033241;28;20469;-71
2022/01/15 01:05:37;;;;;;;23.98;1.42;;;11.20;92.00;;;;;;5031425;28;20112;-71
2022/01/15 01:08:03;;;;;;;10.07;1.20;;;11.20;92.00;;;;;;5030883;28;20385;-71
2022/01/15 01:23:34;;;;;;;38.45;1.48;;;11.20;91.90;;;;;;5032328;28;20025;-71
2022/01/15 01:26:22;;;;;;;37.40;1.80;;;11.20;91.90;;;;;;5032645;28;20627;-71
2022/01/15 01:28:55;;;;;;;44.20;1.65;;;11.20;91.90;;;;;;5031976;28;20076;-71
2022/01/15 01:31:28;;;;;;;60.85;2.10;;;11.10;91.90;;;;;;5021313;28;20111;-71
2022/01/15 01:34:03;;;;;;;60.38;2.03;;;11.20;91.90;;;;;;5032618;28;20053;-71
2022/01/15 01:39:14;;;;;;;14.82;1.27;;;11.10;91.90;;;;;;5031410;28;20416;-71
2022/01/15 01:41:47;;;;;;;29.25;1.40;;;11.10;91.90;;;;;;5032447;28;20546;-71
2022/01/15 01:44:17;;;;;;;;;;;11.20;92.00;;;;;;5032059;28;20045;-71
2022/01/15 01:46:52;;;;;;;43.08;1.67;;;11.10;92.00;;;;;;5032542;28;19909;-71
2022/01/15 01:49:19;;;;;;;28.50;1.73;;;11.10;91.90;;;;;;5032387;28;20045;-71
2022/01/15 01:51:45;;;;;;;12.80;1.23;;;11.10;91.90;;;;;;5031623;28;20033;-71
2022/01/15 01:54:17;;;;;;;60.40;2.15;;;11.10;91.90;;;;;;5032380;28;20519;-71
2022/01/15 01:56:43;;;;;;;27.05;1.88;;;11.10;91.90;;;;;;5032353;28;20025;-71
2022/01/15 01:59:09;;;;;;;30.77;1.95;;;11.10;91.90;;;;;;5032115;28;20120;-71
2022/01/15 02:01:37;;;;;;;5.72;1.17;;;11.10;91.90;;;;;;5032251;28;20380;-71
2022/01/15 02:04:03;;;;;;;51.40;2.65;;;11.10;92.00;;;;;;5031846;28;20030;-71
2022/01/15 02:06:29;;;;;;;15.05;1.40;;;11.10;92.00;;;;;;5032157;28;20038;-71
2022/01/15 02:08:57;;;;;;;7.82;1.30;;;11.00;92.00;;;;;;5031815;28;20052;-71
2022/01/15 02:11:25;;;;;;;1.33;1.00;;;11.00;92.10;;;;;;5031879;28;20504;-71
2022/01/15 02:13:50;;;;;;;10.30;1.20;;;11.10;92.10;;;;;;5031996;28;20037;-71
2022/01/15 02:16:16;;;;;;;1.30;0.55;;;11.10;92.20;;;;;;5032422;28;20038;-71
2022/01/15 02:18:42;;;;;;;9.35;1.10;;;11.00;92.20;;;;;;5031318;28;20069;-71
2022/01/15 02:23:41;;;;;;;23.75;1.67;;;10.90;92.30;;;;;;5032230;28;20350;-71
2022/01/15 02:26:09;;;;;;;13.20;1.23;;;10.90;92.40;;;;;;5031506;28;20055;-71
2022/01/15 02:28:38;;;;;;;25.63;1.13;;;10.90;92.40;;;;;;5033556;28;20041;-71
2022/01/15 02:31:09;;;;;;;2.22;0.80;;;10.90;92.50;;;;;;5036155;28;20469;-71
2022/01/15 02:33:36;;;;;;;2.25;1.00;;;10.90;92.60;;;;;;5033843;28;20399;-71
2022/01/15 02:36:08;;;;;;;1.20;1.10;;;10.80;92.60;;;;;;5029829;28;20025;-71
2022/01/15 02:38:35;;;;;;;0.88;0.88;;;10.80;92.60;;;;;;5035139;28;20125;-71
2022/01/15 02:41:01;;;;;;;1.67;0.90;;;10.80;92.60;;;;;;5035295;28;20377;-71
2022/01/15 02:43:31;;;;;;;6.22;1.05;;;10.80;92.60;;;;;;5035428;28;20124;-71
2022/01/15 02:46:00;;;;;;;13.07;1.27;;;10.80;92.60;;;;;;5035820;28;20028;-71
2022/01/15 02:48:28;;;;;;;39.25;1.80;;;10.80;92.60;;;;;;5035192;28;20045;-71
2022/01/15 02:50:55;;;;;;;2.67;1.15;;;10.80;92.90;;;;;;5035419;28;20038;-71
2022/01/15 02:53:22;;;;;;;3.60;1.13;;;10.80;92.60;;;;;;5034914;28;20409;-71
2022/01/15 02:55:51;;;;;;;1.63;1.20;;;10.80;92.60;;;;;;5035807;28;20369;-72
2022/01/15 02:58:19;;;;;;;2.50;1.63;;;10.80;92.80;;;;;;5035386;28;20095;-71
2022/01/15 03:00:45;;;;;;;2.35;1.20;;;10.80;92.50;;;;;;5034959;28;20040;-71
2022/01/15 03:03:11;;;;;;;6.22;1.38;;;10.80;92.40;;;;;;5035791;28;20039;-71
2022/01/15 03:05:37;;;;;;;2.47;1.20;;;10.80;92.40;;;;;;5035085;28;20033;-71
2022/01/15 03:08:03;;;;;;;2.67;1.30;;;10.90;92.40;;;;;;5035031;28;20040;-71
2022/01/15 03:10:29;;;;;;;3.38;1.20;;;10.90;92.30;;;;;;5035211;28;20044;-71
2022/01/15 03:12:58;;;;;;;7.68;1.60;;;10.80;92.20;;;;;;5035447;28;20037;-71
2022/01/15 03:15:25;;;;;;;4.72;1.42;;;10.90;92.20;;;;;;5034860;28;20025;-71
2022/01/15 03:17:51;;;;;;;4.55;1.40;;;10.90;92.20;;;;;;5035122;28;20485;-71
2022/01/15 03:20:19;;;;;;;2.63;1.20;;;10.90;92.10;;;;;;5035324;28;20040;-71
2022/01/15 03:22:45;;;;;;;2.50;1.20;;;11.00;92.10;;;;;;5034377;28;20436;-71
2022/01/15 03:25:12;;;;;;;4.63;1.45;;;10.90;92.00;;;;;;5034061;28;20065;-71
2022/01/15 03:27:39;;;;;;;5.72;1.40;;;10.90;92.10;;;;;;5035145;28;20113;-71
2022/01/15 03:30:07;;;;;;;3.10;0.88;;;10.90;92.10;;;;;;5034638;28;20041;-71
2022/01/15 03:32:33;;;;;;;2.22;0.98;;;10.80;92.10;;;;;;5034934;28;20029;-71
2022/01/15 03:34:59;;;;;;;1.45;1.00;;;10.80;92.20;;;;;;5035217;28;20096;-71
2022/01/15 03:37:25;;;;;;;1.33;0.80;;;10.80;92.40;;;;;;5033868;28;20033;-71
2022/01/15 03:39:50;;;;;;;3.15;0.88;;;10.70;92.40;;;;;;5033654;28;20029;-71
2022/01/15 03:42:16;;;;;;;3.45;1.10;;;10.70;92.50;;;;;;5035034;28;20025;-71
2022/01/15 03:44:47;;;;;;;1.05;0.95;;;10.60;92.50;;;;;;5034225;28;20432;-70
2022/01/15 03:47:14;;;;;;;2.85;1.00;;;10.60;92.50;;;;;;5034842;28;20041;-71
2022/01/15 03:49:40;;;;;;;2.42;1.45;;;10.60;92.50;;;;;;5034104;28;20504;-71
2022/01/15 03:52:10;;;;;;;6.97;0.93;;;10.60;92.50;;;;;;5033377;28;20036;-71
2022/01/15 03:54:36;;;;;;;1.20;1.10;;;10.70;92.50;;;;;;5024166;28;20044;-71
2022/01/15 03:57:03;;;;;;;5.18;1.25;;;10.60;92.50;;;;;;5034021;28;20836;-71
2022/01/15 03:59:32;;;;;;;6.05;1.10;;;10.70;92.50;;;;;;5034613;28;20037;-71
2022/01/15 04:01:58;;;;;;;5.88;1.42;;;10.60;92.40;;;;;;5034315;28;20106;-71
2022/01/15 04:04:24;;;;;;;4.95;1.00;;;10.70;92.40;;;;;;5034078;28;20061;-71
2022/01/15 04:06:49;;;;;;;4.78;1.13;;;10.70;92.40;;;;;;5033931;28;20018;-71
2022/01/15 04:09:17;;;;;;;8.35;1.85;;;10.70;92.30;;;;;;5034333;28;20391;-70
2022/01/15 04:11:43;;;;;;;5.35;1.10;;;10.70;92.10;;;;;;5033744;28;20469;-71
2022/01/15 04:14:08;;;;;;;3.25;1.33;;;10.70;92.00;;;;;;5034381;28;20109;-71
2022/01/15 04:16:34;;;;;;;2.35;1.40;;;10.80;92.00;;;;;;5034073;28;20029;-71
2022/01/15 04:19:00;;;;;;;1.27;1.13;;;10.70;92.00;;;;;;5022527;28;20504;-71
2022/01/15 04:21:26;;;;;;;1.92;0.90;;;10.70;92.00;;;;;;5032745;28;20033;-71
2022/01/15 04:23:53;;;;;;;1.88;1.10;;;10.70;92.30;;;;;;5034203;28;20832;-71
2022/01/15 04:26:24;;;;;;;4.32;1.13;;;10.70;92.10;;;;;;5027655;28;20085;-70
2022/01/15 04:28:50;;;;;;;2.05;1.10;;;10.60;92.10;;;;;;5027863;28;20037;-71
2022/01/15 04:31:17;;;;;;;7.47;1.13;;;10.70;92.10;;;;;;5034103;28;20029;-71
2022/01/15 04:33:43;;;;;;;3.72;1.25;;;10.70;92.10;;;;;;5033041;28;20038;-71
2022/01/15 04:36:09;;;;;;;2.42;1.20;;;10.70;92.10;;;;;;5033714;28;20048;-71
2022/01/15 04:38:38;;;;;;;3.38;1.40;;;10.70;92.00;;;;;;5033381;28;20473;-71
2022/01/15 04:41:05;;;;;;;4.68;1.50;;;10.80;92.00;;;;;;5032756;28;20492;-71
2022/01/15 04:43:30;;;;;;;4.38;1.27;;;10.80;92.00;;;;;;5033377;28;20033;-71
2022/01/15 04:45:56;;;;;;;1.75;1.00;;;10.80;91.90;;;;;;5032796;28;20032;-71
2022/01/15 04:48:22;;;;;;;3.45;1.05;;;10.80;91.90;;;;;;5033766;28;20042;-71
2022/01/15 04:50:47;;;;;;;5.50;1.38;;;10.70;91.90;;;;;;5033033;28;20053;-71
2022/01/15 04:53:13;;;;;;;3.72;0.93;;;10.80;91.80;;;;;;5033011;28;20056;-71
2022/01/15 04:55:39;;;;;;;3.85;0.95;;;10.80;91.80;;;;;;5033165;28;20033;-71
2022/01/15 04:58:05;;;;;;;7.50;1.70;;;10.80;91.70;;;;;;5033815;28;20033;-71
2022/01/15 05:00:32;;;;;;;11.00;2.35;;;10.80;91.60;;;;;;5039382;28;20063;-71
2022/01/15 05:02:58;;;;;;;2.33;0.98;;;10.80;91.60;;;;;;5040813;28;20456;-70
2022/01/15 05:05:25;;;;;;;1.65;0.70;;;10.80;91.50;;;;;;5040100;28;20072;-71
2022/01/15 05:07:53;;;;;;;4.60;0.90;;;10.80;91.50;;;;;;5032500;28;20104;-71
2022/01/15 05:10:23;;;;;;;2.15;0.75;;;10.80;91.40;;;;;;5032924;28;20576;-71
2022/01/15 05:12:50;;;;;;;5.25;0.95;;;10.70;91.30;;;;;;5032827;28;20033;-71
2022/01/15 05:15:18;;;;;;;5.75;1.15;;;10.70;91.30;;;;;;5032107;28;20037;-71
2022/01/15 05:17:45;;;;;;;5.63;0.90;;;10.70;91.20;;;;;;5032619;28;20080;-71
2022/01/15 05:20:12;;;;;;;4.05;1.27;;;10.70;91.10;;;;;;5039180;28;20083;-71
2022/01/15 05:22:39;;;;;;;4.32;0.90;;;10.70;91.10;;;;;;5031748;28;20508;-71
2022/01/15 05:25:09;;;;;;;3.35;0.57;;;10.70;91.10;;;;;;5032944;28;20045;-71
2022/01/15 05:27:55;;;;;;;5.35;1.08;;;10.80;91.10;;;;;;5032119;28;20769;-71
2022/01/15 05:30:22;;;;;;;10.10;1.23;;;10.70;91.00;;;;;;5031201;28;20124;-69
2022/01/15 05:32:47;;;;;;;7.53;1.00;;;10.70;91.00;;;;;;5032166;28;20121;-69
2022/01/15 05:35:13;;;;;;;4.72;0.93;;;10.70;91.30;;;;;;5031752;28;20489;-71
2022/01/15 05:37:41;;;;;;;2.80;0.95;;;10.70;91.00;;;;;;5031877;28;20163;-72
2022/01/15 05:40:07;;;;;;;3.40;0.90;;;10.70;91.00;;;;;;5032234;28;20037;-71
2022/01/15 05:42:33;;;;;;;2.10;0.88;;;10.70;90.90;;;;;;5030871;28;20017;-71
2022/01/15 05:44:59;;;;;;;2.85;1.20;;;10.70;90.90;;;;;;5031801;28;20025;-71
2022/01/15 05:47:25;;;;;;;2.38;1.25;;;10.70;90.90;;;;;;5031817;28;20469;-71
2022/01/15 05:49:51;;;;;;;1.98;0.90;;;10.70;90.90;;;;;;5030979;28;20037;-71
2022/01/15 05:52:17;;;;;;;3.53;1.30;;;10.60;90.90;;;;;;5031678;28;20034;-71
2022/01/15 05:54:42;;;;;;;1.80;0.77;;;10.60;91.00;;;;;;5032070;28;20091;-71
2022/01/15 05:57:08;;;;;;;2.67;0.85;;;10.70;91.00;;;;;;5032690;28;20036;-70
2022/01/15 05:59:34;;;;;;;2.95;1.05;;;10.70;91.00;;;;;;5034610;28;20033;-71
2022/01/15 06:02:00;;;;;;;2.03;0.93;;;10.70;91.00;;;;;;5022175;28;20030;-71
2022/01/15 06:04:25;;;;;;;7.38;1.15;;;10.70;91.00;;;;;;5028833;28;20028;-71
2022/01/15 06:06:51;;;;;;;2.70;1.02;;;10.70;91.00;;;;;;5032614;28;20501;-71
2022/01/15 06:09:17;;;;;;;5.65;1.08;;;10.70;91.00;;;;;;5032340;28;20037;-71
2022/01/15 06:11:43;;;;;;;2.28;0.98;;;10.70;91.00;;;;;;5031826;28;20026;-70
2022/01/15 06:14:09;;;;;;;1.80;0.93;;;10.60;90.90;;;;;;5031278;28;20151;-71
2022/01/15 06:16:36;;;;;;;4.95;0.90;;;10.70;91.00;;;;;;5031735;28;20486;-71
2022/01/15 06:19:02;;;;;;;1.92;1.00;;;10.70;91.00;;;;;;5033353;28;20047;-71
2022/01/15 06:21:31;;;;;;;3.88;1.02;;;10.60;91.00;;;;;;5031450;28;20087;-71
2022/01/15 06:23:56;;;;;;;3.50;1.05;;;10.70;91.10;;;;;;5030911;28;20388;-71
2022/01/15 06:26:22;;;;;;;1.48;0.95;;;10.60;91.00;;;;;;5030447;28;20048;-70
2022/01/15 06:28:48;;;;;;;2.63;0.77;;;10.60;91.00;;;;;;5031190;28;20044;-71
2022/01/15 06:31:15;;;;;;;6.97;1.10;;;10.70;91.10;;;;;;5030960;28;20029;-71
2022/01/15 06:33:41;;;;;;;2.92;1.00;;;10.70;91.40;;;;;;5031507;28;20103;-71
2022/01/15 06:36:06;;;;;;;1.77;0.90;;;10.70;91.10;;;;;;5028907;28;20112;-71
2022/01/15 06:38:32;;;;;;;1.23;0.75;;;10.60;91.10;;;;;;5030867;28;20029;-71
2022/01/15 06:40:58;;;;;;;2.13;0.70;;;10.70;91.10;;;;;;5031924;28;20021;-71
2022/01/15 06:43:23;;;;;;;4.63;0.85;;;10.60;91.10;;;;;;5031947;28;20069;-71
2022/01/15 06:45:49;;;;;;;2.65;0.70;;;10.60;91.10;;;;;;5030751;28;20033;-73
2022/01/15 06:48:15;;;;;;;5.20;1.10;;;10.70;91.20;;;;;;5032223;28;20041;-77
2022/01/15 06:50:42;;;;;;;4.03;1.13;;;10.60;91.20;;;;;;5031762;28;20417;-75
2022/01/15 06:53:11;;;;;;;2.25;0.90;;;10.60;91.20;;;;;;5031473;28;20048;-71
2022/01/15 06:55:36;;;;;;;2.80;1.27;;;10.60;91.20;;;;;;5031638;28;20492;-70
2022/01/15 06:58:02;;;;;;;4.40;1.40;;;10.60;91.20;;;;;;5031881;28;20029;-71
2022/01/15 07:00:28;;;;;;;3.47;1.00;;;10.60;91.20;;;;;;5030843;28;20449;-71
2022/01/15 07:02:53;;;;;;;2.38;1.08;;;10.70;91.20;;;;;;5032064;28;20029;-70
2022/01/15 07:05:20;;;;;;;2.08;1.20;;;10.60;91.20;;;;;;5031708;28;20061;-70
2022/01/15 07:07:47;;;;;;;2.63;1.40;;;10.60;91.20;;;;;;5031200;28;20033;-71
2022/01/15 07:10:14;;;;;;;2.40;1.50;;;10.60;91.20;;;;;;5031306;28;20045;-71
2022/01/15 07:12:40;;;;;;;4.85;1.48;;;10.60;91.20;;;;;;5032003;28;20041;-71
2022/01/15 07:15:05;;;;;;;6.13;1.77;;;10.70;91.30;;;;;;5032851;28;20033;-71
2022/01/15 07:17:31;;;;;;;5.70;1.55;;;10.60;91.20;;;;;;5035486;28;20044;-71
2022/01/15 07:19:57;;;;;;;4.93;1.60;;;10.60;91.30;;;;;;5035047;28;20017;-71
2022/01/15 07:22:23;;;;;;;5.65;1.60;;;10.70;91.30;;;;;;5034555;28;20034;-71
2022/01/15 07:24:48;;;;;;;2.10;1.40;;;10.70;91.30;;;;;;5034114;28;20033;-70
2022/01/15 07:27:14;;;;;;;2.25;1.40;;;10.70;91.30;;;;;;5035236;28;20434;-72
2022/01/15 07:29:40;;;;;;;2.45;1.30;;;10.60;91.30;;;;;;5034576;28;20029;-71
2022/01/15 07:32:06;;;;;;;7.32;1.60;;;10.60;91.30;;;;;;5034809;28;20432;-71
2022/01/15 07:34:35;;;;;;;6.72;1.70;;;10.60;91.30;;;;;;5034519;28;20120;-71
2022/01/15 07:37:01;;;;;;;2.30;1.30;;;10.60;91.30;;;;;;5034650;28;20028;-71
2022/01/15 07:39:27;;;;;;;9.35;1.80;;;10.60;91.30;;;;;;5034798;28;20034;-71
2022/01/15 07:41:56;;;;;;;3.53;1.60;;;10.60;91.30;;;;;;5034069;28;20037;-72
2022/01/15 07:44:22;;;;;;;6.07;1.55;;;10.60;91.30;;;;;;5034873;28;20042;-71
2022/01/15 07:46:47;;;;;;;3.10;1.40;;;10.60;91.30;;;;;;5034892;28;20029;-71
2022/01/15 07:49:13;;;;;;;5.80;1.63;;;10.60;91.40;;;;;;5033980;28;20045;-71
2022/01/15 07:51:39;;;;;;;4.75;1.70;;;10.60;91.40;;;;;;5033892;28;20124;-71
2022/01/15 07:54:04;;;;;;;4.25;2.03;;;10.50;91.40;;;;;;5034466;28;20057;-71
2022/01/15 07:56:30;;;;;;;5.57;1.88;;;10.60;91.40;;;;;;5034145;28;20030;-71
2022/01/15 07:58:56;;;;;;;10.40;2.05;;;10.60;91.40;;;;;;5034559;28;20034;-71
2022/01/15 08:01:22;;;;;;;5.68;2.00;;;10.50;91.40;;;;;;5034753;28;20115;-72
2022/01/15 08:03:48;;;;;;;4.45;1.70;;;10.60;91.40;;;;;;5033640;28;20484;-70
2022/01/15 08:06:15;;;;;;;9.15;2.20;;;10.60;91.40;;;;;;5034521;28;20034;-71
2022/01/15 08:08:40;;;;;;;5.35;1.88;;;10.50;91.40;;;;;;5033972;28;20041;-71
2022/01/15 08:11:06;;;;;;;4.53;1.70;;;10.50;91.40;;;;;;5033523;28;20463;-71
2022/01/15 08:13:35;;;;;;;4.03;1.50;;;10.50;91.50;;;;;;5030542;28;20065;-70
2022/01/15 08:16:04;;;;;;;2.97;1.48;;;10.50;91.50;;;;;;5032522;28;20034;-71
2022/01/15 08:18:32;;;;;;;3.33;1.73;;;10.50;91.50;;;;;;5033301;28;20074;-79
2022/01/15 08:20:58;;;;;;;6.05;2.20;;;10.50;91.60;;;;;;5033344;28;20021;-69
2022/01/15 08:23:24;;;;;;;4.72;2.17;;;10.50;91.60;;;;;;5033394;28;20124;-70
2022/01/15 08:25:50;;;;;;;5.70;2.08;;;10.40;91.60;;;;;;5030856;28;20128;-70
2022/01/15 08:28:17;;;;;;;5.63;2.20;;;10.50;91.60;;;;;;5033107;28;20029;-70
2022/01/15 08:30:43;;;;;;;3.90;2.13;;;10.50;91.60;;;;;;5033249;28;20037;-74
2022/01/15 08:33:09;;;;;;;5.60;2.13;;;10.40;91.60;;;;;;5033283;28;20384;-71
2022/01/15 08:35:35;;;;;;;5.78;2.30;;;10.40;91.60;;;;;;5033107;28;20029;-72
2022/01/15 08:38:03;;;;;;;8.70;2.58;;;10.40;91.60;;;;;;5033289;28;20025;-71
2022/01/15 08:40:30;;;;;;;5.85;2.72;;;10.40;91.70;;;;;;5034043;28;20048;-72
2022/01/15 08:42:55;;;;;;;6.50;2.63;;;10.40;91.70;;;;;;5033103;28;20481;-72
2022/01/15 08:45:21;;;;;;;9.85;3.45;;;10.40;91.70;;;;;;5033299;28;20044;-71
2022/01/15 08:47:47;;;;;;;5.88;3.10;;;10.40;91.70;;;;;;5033491;28;20026;-72
2022/01/15 08:50:14;;;;;;;9.90;3.17;;;10.40;91.80;;;;;;5033731;28;20493;-79
2022/01/15 08:52:43;;;;;;;9.80;3.25;;;10.40;91.80;;;;;;5032750;28;20064;-72
2022/01/15 08:55:09;;;;;;;9.77;3.53;;;10.40;91.80;;;;;;5032825;28;20041;-70
2022/01/15 08:57:35;;;;;;;6.53;2.85;;;10.40;91.90;;;;;;5031638;28;20034;-72
2022/01/15 09:00:03;;;;;;;4.90;2.58;;;10.40;91.90;;;;;;5030919;28;20119;-71
2022/01/15 09:02:28;;;;;;;7.20;3.20;;;10.40;91.90;;;;;;5031417;28;20490;-72
2022/01/15 09:04:54;;;;;;;10.57;3.28;;;10.40;91.90;;;;;;5031453;28;20104;-71
2022/01/15 09:07:20;;;;;;;8.40;3.80;;;10.40;91.90;;;;;;5030815;28;20519;-71
2022/01/15 09:09:46;;;;;;;9.45;3.75;;;10.40;92.00;;;;;;5031166;28;20029;-71
2022/01/15 09:12:11;;;;;;;9.38;3.67;;;10.40;92.00;;;;;;5031269;28;20059;-71
2022/01/15 09:14:39;;;;;;;5.13;2.90;;;10.40;92.00;;;;;;5030052;28;20476;-73
2022/01/15 09:17:05;;;;;;;6.47;3.40;;;10.40;92.30;;;;;;5031384;28;20033;-72
2022/01/15 09:19:30;;;;;;;8.27;2.50;;;10.40;92.10;;;;;;5031117;28;20036;-72
2022/01/15 09:21:56;;;;;;;6.25;3.20;;;10.40;92.10;;;;;;5029570;28;20457;-72
2022/01/15 09:24:21;;;;;;;3.85;2.13;;;10.40;92.20;;;;;;5031063;28;20037;-72
2022/01/15 09:32:17;;;;;;;12.98;5.00;;;10.40;92.30;;;;;;5030890;28;20032;-72
2022/01/15 09:34:43;;;;;;;6.95;3.90;;;10.40;92.30;;;;;;5030199;28;20033;-72
2022/01/15 09:37:08;;;;;;;2.28;1.70;;;10.40;92.30;;;;;;5030741;28;20037;-71
2022/01/15 09:39:35;;;;;;;3.40;1.83;;;10.40;92.40;;;;;;5031952;28;20029;-72
2022/01/15 09:42:01;;;;;;;4.43;1.80;;;10.40;92.40;;;;;;5031172;28;20075;-72
2022/01/15 09:44:27;;;;;;;2.42;1.52;;;10.40;92.40;;;;;;5030148;28;20037;-74
2022/01/15 09:46:54;;;;;;;3.17;1.15;;;10.40;92.40;;;;;;5030374;28;20045;-71
2022/01/15 09:49:23;;;;;;;3.53;2.28;;;10.40;92.40;;;;;;5029762;28;20481;-72
2022/01/15 09:51:52;;;;;;;7.50;3.28;;;10.40;92.40;;;;;;5029979;28;20026;-71
2022/01/15 09:54:18;;;;;;;5.05;2.55;;;10.40;92.50;;;;;;5025353;28;20029;-73
2022/01/15 09:56:46;;;;;;;3.65;2.20;;;10.40;92.40;;;;;;5029133;28;20075;-74
2022/01/15 09:59:13;;;;;;;7.63;2.47;;;10.40;92.40;;;;;;5031208;28;20473;-73
2022/01/15 10:01:38;;;;;;;4.18;2.33;;;10.40;92.50;;;;;;5030152;28;20052;-69
2022/01/15 10:04:04;;;;;;;5.47;2.92;;;10.40;92.50;;;;;;5029537;28;20531;-71
2022/01/15 10:06:33;;;;;;;2.42;1.35;;;10.40;92.40;;;;;;5030962;28;20045;-68
2022/01/15 10:09:05;;;;;;;1.30;0.88;;;10.40;92.50;;;;;;5030118;28;20460;-70
2022/01/15 10:11:46;;;;;;;1.40;0.90;;;10.40;92.60;;;;;;5029948;28;21471;-69
2022/01/15 10:14:28;;;;;;;1.63;1.50;;;10.30;92.70;;;;;;5029999;28;20028;-69
2022/01/15 10:16:55;;;;;;;3.08;1.92;;;10.30;92.80;;;;;;5028114;28;20033;-70
2022/01/15 10:19:37;;;;;;;3.75;1.77;;;10.20;92.90;;;;;;5029214;28;20092;-70
2022/01/15 10:22:17;;;;;;;3.55;1.90;;;10.20;93.00;;;;;;5028135;28;20131;-70
2022/01/15 10:24:58;;;;;;;2.40;1.60;;;10.20;93.00;;;;;;5027057;28;20048;-69
2022/01/15 10:27:32;;;;;;;0.47;0.47;;;10.20;93.10;;;;;;5028195;28;20069;-70
2022/01/15 10:30:14;;;;;;;2.67;1.73;;;10.20;93.20;;;;;;5020449;28;20056;-70
2022/01/15 10:33:01;;;;;;;2.47;1.83;;;10.10;93.20;;;;;;5026207;28;20038;-71
2022/01/15 10:35:38;;;;;;;3.70;2.30;;;10.10;93.20;;;;;;5028773;28;20103;-70
2022/01/15 10:38:15;;;;;;;3.15;1.63;;;10.10;93.10;;;;;;5026809;28;20499;-69
2022/01/15 10:40:42;;;;;;;3.30;1.63;;;10.20;93.20;;;;;;5027611;28;20029;-68
2022/01/15 10:43:09;;;;;;;4.75;1.75;;;10.20;93.20;;;;;;5029156;28;20032;-69
2022/01/15 10:45:46;;;;;;;4.20;2.22;;;10.20;93.20;;;;;;5028205;28;20607;-69
2022/01/15 10:48:25;;;;;;;4.72;2.45;;;10.20;93.20;;;;;;5029073;28;20497;-69
2022/01/15 10:50:58;;;;;;;4.50;2.20;;;10.20;93.20;;;;;;5032403;28;20029;-69
2022/01/15 10:53:34;;;;;;;6.45;3.78;;;10.30;93.30;;;;;;5032306;28;20033;-68
2022/01/15 10:56:00;;;;;;;8.75;3.60;;;10.30;93.20;;;;;;5030790;28;20068;-67
2022/01/15 10:58:25;;;;;;;8.90;4.88;;;10.30;93.20;;;;;;5031154;28;20061;-69
2022/01/15 11:00:57;;;;;;;9.68;4.13;;;10.30;93.10;;;;;;5033174;28;20393;-67
2022/01/15 11:03:24;;;;;;;8.13;3.20;;;10.30;93.20;;;;;;5033224;28;20029;-68
2022/01/15 11:05:51;;;;;;;10.20;3.83;;;10.30;93.10;;;;;;5033830;28;20072;-69
2022/01/15 11:08:25;;;;;;;8.82;3.90;;;10.30;93.20;;;;;;5035532;28;20037;-68
2022/01/15 11:11:04;;;;;;;10.35;6.18;;;10.30;93.20;;;;;;5035466;28;20425;-68
2022/01/15 11:13:41;;;;;;;6.28;2.75;;;10.30;93.20;;;;;;5023739;28;20120;-68
2022/01/15 11:16:14;;;;;;;11.38;6.38;;;10.40;93.20;;;;;;5035093;28;20072;-69
2022/01/15 11:18:44;;;;;;;10.80;5.43;;;10.40;93.00;;;;;;5035712;28;20495;-69
2022/01/15 11:21:13;;;;;;;10.05;4.75;;;10.40;93.00;;;;;;5034539;28;20028;-69
2022/01/15 11:23:40;;;;;;;4.40;1.95;;;10.50;93.00;;;;;;5035454;28;20034;-69
2022/01/15 11:26:32;;;;;;;8.73;3.85;;;10.50;93.10;;;;;;5035135;28;20516;-69
2022/01/15 11:28:58;;;;;;;7.03;3.95;;;10.50;93.10;;;;;;5034621;28;20106;-70
2022/01/15 11:31:27;;;;;;;10.35;4.70;;;10.50;93.00;;;;;;5032725;28;20432;-71
2022/01/15 11:33:55;;;;;;;10.02;5.38;;;10.60;93.00;;;;;;5031602;28;20029;-73
2022/01/15 11:36:41;;;;;;;6.53;3.10;;;10.50;93.00;;;;;;5032590;28;20038;-75
2022/01/15 11:39:08;;;;;;;8.40;4.60;;;10.50;93.00;;;;;;5031918;28;20033;-69
2022/01/15 11:41:40;;;;;;;4.25;2.17;;;10.50;93.00;;;;;;5029299;28;20486;-69
2022/01/15 11:44:12;;;;;;;5.05;2.88;;;10.40;93.10;;;;;;5031577;28;20030;-69
2022/01/15 11:46:52;;;;;;;5.72;3.00;;;10.40;93.20;;;;;;5030832;28;20021;-70
2022/01/15 11:49:23;;;;;;;7.05;3.60;;;10.40;93.30;;;;;;5029691;28;20069;-70
2022/01/15 11:51:53;;;;;;;4.03;2.10;;;10.30;93.40;;;;;;5031855;28;20029;-71
2022/01/15 11:54:18;;;;;;;2.05;1.63;;;10.30;93.40;;;;;;5030693;28;20029;-70
2022/01/15 11:56:48;;;;;;;9.35;3.78;;;10.20;93.80;;;;;;5030530;28;20469;-74
2022/01/15 11:59:23;;;;;;;7.57;4.07;;;10.20;93.50;;;;;;5031521;28;20404;-74
2022/01/15 12:01:50;;;;;;;5.75;2.92;;;10.20;93.50;;;;;;5029540;28;20033;-69
2022/01/15 12:04:28;;;;;;;10.45;5.15;;;10.20;93.50;;;;;;5028210;28;20109;-71
2022/01/15 12:07:05;;;;;;;12.35;5.00;;;10.30;93.50;;;;;;5030252;28;20045;-74
2022/01/15 12:09:35;;;;;;;7.25;3.33;;;10.30;93.40;;;;;;5029913;28;20045;-72
2022/01/15 12:14:56;;;;;;;8.18;2.38;;;10.40;93.40;;;;;;5031823;28;20508;-71
2022/01/15 12:17:54;;;;;;;9.32;5.18;;;10.40;93.40;;;;;;5031709;28;21302;-71
2022/01/15 12:20:21;;;;;;;8.45;4.68;;;10.50;93.30;;;;;;5031652;28;20485;-71
2022/01/15 12:22:58;;;;;;;8.93;5.60;;;10.50;93.20;;;;;;5032645;28;20080;-71
2022/01/15 12:25:26;;;;;;;6.38;3.92;;;10.50;93.10;;;;;;5032446;28;20049;-71
2022/01/15 12:27:58;;;;;;;9.68;5.82;;;10.50;93.10;;;;;;5026174;28;20131;-70
2022/01/15 12:30:29;;;;;;;8.65;4.22;;;10.60;93.00;;;;;;5028981;28;20085;-72
2022/01/15 12:33:00;;;;;;;4.78;2.20;;;10.50;93.00;;;;;;5030662;28;20036;-72
2022/01/15 12:35:34;;;;;;;5.15;3.05;;;10.50;93.10;;;;;;5030015;28;20037;-73
2022/01/15 12:38:01;;;;;;;6.72;4.13;;;10.50;93.20;;;;;;5029056;28;20175;-72
2022/01/15 12:40:31;;;;;;;5.75;2.75;;;10.50;93.20;;;;;;5028360;28;20033;-71
2022/01/15 12:43:04;;;;;;;4.43;2.15;;;10.40;93.20;;;;;;5029134;28;20034;-73
2022/01/15 12:45:32;;;;;;;8.87;4.63;;;10.40;93.30;;;;;;5028933;28;21267;-72
2022/01/15 12:47:58;;;;;;;9.57;5.65;;;10.40;93.40;;;;;;5029718;28;20044;-73
2022/01/15 12:50:26;;;;;;;5.55;3.33;;;10.40;93.30;;;;;;5029563;28;20041;-72
2022/01/15 12:53:04;;;;;;;10.23;5.70;;;10.40;93.40;;;;;;5029471;28;20022;-72
2022/01/15 12:55:32;;;;;;;9.68;5.97;;;10.40;93.30;;;;;;5030136;28;20764;-73
2022/01/15 12:57:58;;;;;;;3.50;2.50;;;10.40;93.30;;;;;;5028694;28;20017;-73
2022/01/15 13:00:27;;;;;;;8.65;4.97;;;10.50;93.40;;;;;;5030268;28;20791;-72
2022/01/15 13:02:55;;;;;;;11.10;6.05;;;10.50;93.40;;;;;;5030932;28;20044;-71
2022/01/15 13:05:24;;;;;;;10.77;6.43;;;10.40;93.30;;;;;;5032667;28;20037;-77
2022/01/15 13:08:13;;;;;;;9.98;6.00;;;10.50;93.20;;;;;;5021060;28;20109;-77
2022/01/15 13:11:02;;;;;;;6.22;3.70;;;10.50;93.20;;;;;;5033408;28;20056;-78
2022/01/15 13:13:34;;;;;;;9.13;4.55;;;10.50;93.20;;;;;;5032099;28;20037;-72
2022/01/15 13:16:03;;;;;;;8.48;4.22;;;10.50;93.20;;;;;;5032605;28;20033;-72
2022/01/15 13:18:34;;;;;;;9.93;5.15;;;10.50;93.20;;;;;;5030325;28;20029;-72